Time;durP1;ratioP1;P1;durP2;ratioP2;P2;SDS_P1;SDS_P2;PMS_P1;PMS_P2;Temp;Humidity;BMP_temperature;BMP_pressure;BME280_temperature;BME280_humidity;BME280_pressure;Samples;Min_cycle;Max_cycle;Signal;HPM_P1;HPM_P2
2023/12/03 00:00:50;;;;;;;;;;;;;;;-4.22;39.16;101247.84;5054785;28;19994;-57
2023/12/03 00:03:16;;;;;;;;;;;;;;;-4.23;38.59;101240.88;5063915;28;19948;-55
2023/12/03 00:05:42;;;;;;;;;;;;;;;-4.22;38.97;101248.69;5074663;28;19952;-57
2023/12/03 00:08:07;;;;;;;;;;;;;;;-4.22;38.66;101251.31;5074548;28;19966;-54
2023/12/03 00:10:33;;;;;;;;;;;;;;;-4.21;38.94;101239.91;5074438;28;19913;-56
2023/12/03 00:12:58;;;;;;;;;;;;;;;-4.20;39.06;101241.59;5074193;28;19969;-56
2023/12/03 00:15:24;;;;;;;;;;;;;;;-4.22;38.68;101237.34;5073867;28;20011;-57
2023/12/03 00:17:52;;;;;;;;;;;;;;;-4.24;38.44;101240.06;5054427;28;19921;-57
2023/12/03 00:20:17;;;;;;;;;;;;;;;-4.23;39.26;101240.88;5054603;28;19935;-58
2023/12/03 00:22:43;;;;;;;;;;;;;;;-4.25;38.81;101248.00;5054538;28;19913;-58
2023/12/03 00:25:08;;;;;;;;;;;;;;;-4.31;38.49;101247.41;5054230;28;19919;-58
2023/12/03 00:27:33;;;;;;;;;;;;;;;-4.30;39.08;101254.31;5054206;28;19936;-58
2023/12/03 00:29:59;;;;;;;;;;;;;;;-4.32;38.66;101252.72;5054107;28;19917;-56
2023/12/03 00:32:24;;;;;;;;;;;;;;;-4.36;38.50;101257.28;5054459;28;19912;-57
2023/12/03 00:34:49;;;;;;;;;;;;;;;-4.37;38.26;101259.97;5052489;28;19921;-58
2023/12/03 00:37:15;;;;;;;;;;;;;;;-4.37;38.80;101258.19;5034269;28;20008;-58
2023/12/03 00:39:40;;;;;;;;;;;;;;;-4.36;38.62;101257.28;5034240;28;19991;-57
2023/12/03 00:42:06;;;;;;;;;;;;;;;-4.38;39.13;101259.13;5034268;28;19920;-57
2023/12/03 00:44:32;;;;;;;;;;;;;;;-4.39;39.27;101259.19;5034205;28;19960;-57
2023/12/03 00:46:57;;;;;;;;;;;;;;;-4.40;39.07;101254.88;5033968;28;19913;-59
2023/12/03 00:49:22;;;;;;;;;;;;;;;-4.42;39.05;101251.47;5036455;28;19917;-57
2023/12/03 00:51:48;;;;;;;;;;;;;;;-4.42;38.63;101256.72;5053736;28;19920;-57
2023/12/03 00:54:13;;;;;;;;;;;;;;;-4.39;38.58;101259.19;5053400;28;19919;-57
2023/12/03 00:56:38;;;;;;;;;;;;;;;-4.40;38.80;101262.72;5054019;28;19939;-56
2023/12/03 00:59:04;;;;;;;;;;;;;;;-4.39;38.80;101272.31;5058894;28;19966;-56
2023/12/03 01:01:29;;;;;;;;;;;;;;;-4.42;38.84;101269.84;5071021;28;19927;-57
2023/12/03 01:03:54;;;;;;;;;;;;;;;-4.44;39.30;101275.16;5053615;28;19912;-57
2023/12/03 01:06:20;;;;;;;;;;;;;;;-4.44;38.99;101275.16;5053818;28;19917;-58
2023/12/03 01:08:45;;;;;;;;;;;;;;;-4.39;39.21;101275.78;5064896;28;19948;-56
2023/12/03 01:11:11;;;;;;;;;;;;;;;-4.37;39.30;101273.06;5073302;28;20325;-58
2023/12/03 01:13:36;;;;;;;;;;;;;;;-4.34;38.89;101272.94;5073529;28;19937;-56
2023/12/03 01:16:03;;;;;;;;;;;;;;;-4.34;38.78;101272.94;5067715;28;20015;-58
2023/12/03 01:18:28;;;;;;;;;;;;;;;-4.36;38.99;101285.28;5053786;28;19917;-58
2023/12/03 01:20:54;;;;;;;;;;;;;;;-4.41;38.47;101280.25;5053589;28;19917;-57
2023/12/03 01:23:19;;;;;;;;;;;;;;;-4.45;38.09;101276.09;5053563;28;19920;-58
2023/12/03 01:25:45;;;;;;;;;;;;;;;-4.47;38.85;101280.56;5053566;28;19912;-58
2023/12/03 01:28:10;;;;;;;;;;;;;;;-4.48;38.33;101281.47;5053224;28;19913;-55
2023/12/03 01:30:36;;;;;;;;;;;;;;;-4.51;38.53;101279.88;5053353;28;19912;-58
2023/12/03 01:33:01;;;;;;;;;;;;;;;-4.50;38.81;101278.09;5053412;28;19913;-58
2023/12/03 01:35:26;;;;;;;;;;;;;;;-4.53;38.72;101281.72;5046028;28;20335;-59
2023/12/03 01:37:51;;;;;;;;;;;;;;;-4.55;38.76;101282.69;5033606;28;19917;-57
2023/12/03 01:40:17;;;;;;;;;;;;;;;-4.54;38.92;101279.16;5043371;28;19913;-55
2023/12/03 01:42:42;;;;;;;;;;;;;;;-4.53;39.07;101286.97;5053073;28;19913;-58
2023/12/03 01:45:08;;;;;;;;;;;;;;;-4.53;39.22;101292.19;5053261;28;19912;-58
2023/12/03 01:47:33;;;;;;;;;;;;;;;-4.55;38.80;101290.56;5053266;28;20281;-58
2023/12/03 01:50:06;;;;;;;;;;;;;;;-4.55;38.94;101294.06;5053377;28;19917;-58
2023/12/03 01:52:32;;;;;;;;;;;;;;;-4.59;39.00;101292.47;5053118;28;19974;-57
2023/12/03 01:54:57;;;;;;;;;;;;;;;-4.63;38.63;101293.56;5054893;28;20370;-58
2023/12/03 01:57:23;;;;;;;;;;;;;;;-4.66;38.62;101298.97;5059501;28;19913;-59
2023/12/03 01:59:48;;;;;;;;;;;;;;;-4.67;38.47;101300.72;5053128;28;20346;-57
2023/12/03 02:02:13;;;;;;;;;;;;;;;-4.64;39.13;101304.13;5052793;28;20007;-59
2023/12/03 02:04:39;;;;;;;;;;;;;;;-4.63;38.91;101298.81;5063567;28;20369;-56
2023/12/03 02:07:05;;;;;;;;;;;;;;;-4.65;38.86;101298.03;5077243;28;19923;-56
2023/12/03 02:09:30;;;;;;;;;;;;;;;-4.69;38.75;101291.25;5077234;28;19936;-55
2023/12/03 02:11:55;;;;;;;;;;;;;;;-4.72;38.53;101291.38;5076885;28;19920;-57
2023/12/03 02:14:21;;;;;;;;;;;;;;;-4.77;38.53;101296.88;5076818;28;19916;-58
2023/12/03 02:16:47;;;;;;;;;;;;;;;-4.75;38.86;101296.81;5064596;28;19920;-57
2023/12/03 02:19:13;;;;;;;;;;;;;;;-4.78;38.38;101303.03;5056916;28;19917;-57
2023/12/03 02:21:38;;;;;;;;;;;;;;;-4.77;39.10;101301.25;5056321;28;19913;-57
2023/12/03 02:24:03;;;;;;;;;;;;;;;-4.75;39.21;101302.03;5056495;28;19944;-57
2023/12/03 02:26:29;;;;;;;;;;;;;;;-4.74;39.04;101306.34;5056878;28;20016;-57
2023/12/03 02:28:54;;;;;;;;;;;;;;;-4.73;39.16;101305.44;5056764;28;20375;-57
2023/12/03 02:31:19;;;;;;;;;;;;;;;-4.70;39.03;101302.66;5056648;28;19963;-57
2023/12/03 02:34:03;;;;;;;;;;;;;;;-4.65;39.39;101313.75;5056803;28;19963;-55
2023/12/03 02:36:29;;;;;;;;;;;;;;;-4.67;38.94;101305.13;5072651;28;19923;-58
2023/12/03 02:38:54;;;;;;;;;;;;;;;-4.69;39.16;101304.34;5076611;28;19916;-55
2023/12/03 02:41:19;;;;;;;;;;;;;;;-4.68;38.84;101301.66;5076368;28;19916;-58
2023/12/03 02:43:45;;;;;;;;;;;;;;;-4.67;38.75;101305.13;5076309;28;19933;-58
2023/12/03 02:46:10;;;;;;;;;;;;;;;-4.68;38.72;101309.53;5076851;28;19936;-58
2023/12/03 02:48:36;;;;;;;;;;;;;;;-4.68;38.56;101311.28;5076547;28;19913;-57
2023/12/03 02:51:01;;;;;;;;;;;;;;;-4.69;38.66;101320.91;5069203;28;20297;-57
2023/12/03 02:53:26;;;;;;;;;;;;;;;-4.69;38.76;101312.22;5076120;28;19951;-56
2023/12/03 02:55:52;;;;;;;;;;;;;;;-4.73;38.94;101318.53;5057620;28;20357;-58
2023/12/03 02:58:17;;;;;;;;;;;;;;;-4.78;38.53;101318.75;5056047;28;19913;-56
2023/12/03 03:00:42;;;;;;;;;;;;;;;-4.81;38.88;101321.53;5056324;28;19916;-58
2023/12/03 03:03:08;;;;;;;;;;;;;;;-4.81;38.52;101325.91;5055644;28;19916;-58
2023/12/03 03:05:33;;;;;;;;;;;;;;;-4.82;38.92;101316.34;5056318;28;19996;-56
2023/12/03 03:07:58;;;;;;;;;;;;;;;-4.86;38.60;101316.50;5056004;28;19917;-53
2023/12/03 03:10:24;;;;;;;;;;;;;;;-4.88;38.63;101325.38;5055931;28;20242;-55
2023/12/03 03:12:49;;;;;;;;;;;;;;;-4.92;38.57;101321.16;5055861;28;19932;-58
2023/12/03 03:15:14;;;;;;;;;;;;;;;-4.93;38.64;101324.72;5054311;28;19917;-58
2023/12/03 03:17:40;;;;;;;;;;;;;;;-4.93;38.95;101317.72;5055495;28;19913;-55
2023/12/03 03:20:06;;;;;;;;;;;;;;;-4.92;38.92;101327.28;5055449;28;19917;-58
2023/12/03 03:22:31;;;;;;;;;;;;;;;-4.91;39.14;101323.72;5055658;28;19952;-56
2023/12/03 03:24:58;;;;;;;;;;;;;;;-4.91;38.58;101323.72;5055604;28;20007;-56
2023/12/03 03:27:24;;;;;;;;;;;;;;;-4.92;39.13;101329.91;5055658;28;19912;-57
2023/12/03 03:29:49;;;;;;;;;;;;;;;-4.89;38.77;101328.88;5055484;28;20277;-58
2023/12/03 03:32:14;;;;;;;;;;;;;;;-4.86;38.76;101334.84;5055586;28;20281;-58
2023/12/03 03:34:40;;;;;;;;;;;;;;;-4.83;39.00;101333.81;5054815;28;19917;-55
2023/12/03 03:37:05;;;;;;;;;;;;;;;-4.81;39.19;101344.25;5035572;28;19924;-55
2023/12/03 03:39:31;;;;;;;;;;;;;;;-4.79;39.21;101355.50;5035444;28;20510;-57
2023/12/03 03:41:56;;;;;;;;;;;;;;;-4.75;39.64;101354.44;5035171;28;20432;-58
2023/12/03 03:44:22;;;;;;;;;;;;;;;-4.76;38.85;101350.94;5035192;28;19920;-58
2023/12/03 03:46:47;;;;;;;;;;;;;;;-4.79;38.62;101350.25;5035123;28;19969;-57
2023/12/03 03:49:13;;;;;;;;;;;;;;;-4.82;39.00;101353.88;5069290;28;19931;-57
2023/12/03 03:51:38;;;;;;;;;;;;;;;-4.84;38.93;101357.50;5075007;28;20361;-56
2023/12/03 03:54:04;;;;;;;;;;;;;;;-4.84;38.62;101352.25;5071648;28;19913;-57
2023/12/03 03:56:29;;;;;;;;;;;;;;;-4.84;39.11;101357.50;5054897;28;19935;-57
2023/12/03 03:58:55;;;;;;;;;;;;;;;-4.83;38.81;101361.81;5055047;28;20364;-57
2023/12/03 04:01:20;;;;;;;;;;;;;;;-4.86;38.23;101357.56;5054876;28;19917;-56
2023/12/03 04:03:45;;;;;;;;;;;;;;;-4.88;38.54;101348.94;5054811;28;19913;-56
2023/12/03 04:06:11;;;;;;;;;;;;;;;-4.90;38.33;101350.78;5054778;28;19920;-57
2023/12/03 04:08:36;;;;;;;;;;;;;;;-4.96;38.72;101357.16;5054861;28;19919;-54
2023/12/03 04:11:04;;;;;;;;;;;;;;;-5.00;38.97;101355.56;5054486;28;19920;-58
2023/12/03 04:13:29;;;;;;;;;;;;;;;-5.04;38.73;101354.03;5055064;28;20316;-54
2023/12/03 04:15:55;;;;;;;;;;;;;;;-5.02;38.82;101349.56;5054669;28;19925;-53
2023/12/03 04:18:21;;;;;;;;;;;;;;;-5.02;38.95;101346.94;5054921;28;19940;-56
2023/12/03 04:20:46;;;;;;;;;;;;;;;-5.03;38.44;101345.28;5054524;28;19912;-55
2023/12/03 04:23:13;;;;;;;;;;;;;;;-5.06;38.85;101343.63;5054264;28;20305;-58
2023/12/03 04:25:38;;;;;;;;;;;;;;;-5.06;38.53;101345.41;5054416;28;19919;-56
2023/12/03 04:28:04;;;;;;;;;;;;;;;-5.08;38.90;101345.47;5054062;28;19947;-58
2023/12/03 04:30:29;;;;;;;;;;;;;;;-5.08;38.45;101347.25;5054242;28;19917;-55
2023/12/03 04:32:55;;;;;;;;;;;;;;;-5.10;38.69;101343.84;5054627;28;19962;-57
2023/12/03 04:35:21;;;;;;;;;;;;;;;-5.11;38.54;101339.53;5060545;28;19967;-56
2023/12/03 04:37:46;;;;;;;;;;;;;;;-5.11;39.07;101343.00;5074402;28;20246;-57
2023/12/03 04:40:15;;;;;;;;;;;;;;;-5.10;38.71;101331.59;5056186;28;19924;-58
2023/12/03 04:42:41;;;;;;;;;;;;;;;-5.09;39.10;101335.94;5073893;28;19913;-55
2023/12/03 04:45:07;;;;;;;;;;;;;;;-5.06;39.59;101338.38;5074097;28;19916;-56
2023/12/03 04:47:32;;;;;;;;;;;;;;;-5.06;38.75;101343.63;5074184;28;19913;-53
2023/12/03 04:49:57;;;;;;;;;;;;;;;-5.08;39.19;101340.22;5075886;28;19913;-58
2023/12/03 04:52:23;;;;;;;;;;;;;;;-5.08;38.54;101336.78;5057179;28;19913;-57
2023/12/03 04:54:48;;;;;;;;;;;;;;;-5.06;38.97;101350.63;5054802;28;19917;-57
2023/12/03 04:57:13;;;;;;;;;;;;;;;-5.04;38.88;101353.19;5053645;28;19921;-56
2023/12/03 04:59:39;;;;;;;;;;;;;;;-5.05;39.21;101354.97;5053686;28;20296;-56
2023/12/03 05:02:04;;;;;;;;;;;;;;;-5.04;39.17;101359.28;5053587;28;19934;-54
2023/12/03 05:04:29;;;;;;;;;;;;;;;-5.04;39.06;101359.28;5053539;28;19964;-57
2023/12/03 05:06:55;;;;;;;;;;;;;;;-5.03;38.92;101353.13;5053715;28;19959;-57
2023/12/03 05:09:20;;;;;;;;;;;;;;;-5.02;38.56;101365.28;5053616;28;20357;-57
2023/12/03 05:11:45;;;;;;;;;;;;;;;-5.06;38.88;101361.13;5053447;28;19952;-58
2023/12/03 05:14:11;;;;;;;;;;;;;;;-5.06;38.62;101368.97;5053122;28;20012;-57
2023/12/03 05:16:37;;;;;;;;;;;;;;;-5.05;39.14;101362.81;5053377;28;20346;-55
2023/12/03 05:19:04;;;;;;;;;;;;;;;-5.06;39.48;101372.44;5035120;28;21458;-53
2023/12/03 05:21:30;;;;;;;;;;;;;;;-5.06;38.81;101371.59;5053345;28;19913;-57
2023/12/03 05:23:55;;;;;;;;;;;;;;;-5.06;38.50;101361.94;5053555;28;19966;-55
2023/12/03 05:26:20;;;;;;;;;;;;;;;-5.05;39.42;101383.78;5053223;28;20366;-58
2023/12/03 05:28:46;;;;;;;;;;;;;;;-5.06;38.41;101380.28;5035787;28;20003;-53
2023/12/03 05:31:11;;;;;;;;;;;;;;;-5.04;38.84;101380.22;5053462;28;20266;-57
2023/12/03 05:33:36;;;;;;;;;;;;;;;-5.06;38.85;101379.44;5053363;28;19913;-54
2023/12/03 05:36:02;;;;;;;;;;;;;;;-5.09;38.69;101380.44;5065138;28;19917;-57
2023/12/03 05:38:29;;;;;;;;;;;;;;;-5.12;38.62;101387.59;5073014;28;19965;-54
2023/12/03 05:40:54;;;;;;;;;;;;;;;-5.12;39.06;101387.59;5073290;28;19955;-53
2023/12/03 05:43:19;;;;;;;;;;;;;;;-5.15;39.06;101383.31;5073131;28;19959;-55
2023/12/03 05:45:45;;;;;;;;;;;;;;;-5.10;38.97;101393.59;5073309;28;19920;-54
2023/12/03 05:48:10;;;;;;;;;;;;;;;-5.12;39.01;101383.19;5073269;28;19912;-54
2023/12/03 05:50:36;;;;;;;;;;;;;;;-5.13;38.27;101389.34;5060239;28;19919;-57
2023/12/03 05:53:02;;;;;;;;;;;;;;;-5.16;38.58;101381.63;5052886;28;20266;-57
2023/12/03 05:55:27;;;;;;;;;;;;;;;-5.15;39.10;101387.72;5052079;28;19962;-57
2023/12/03 05:57:52;;;;;;;;;;;;;;;-5.17;38.57;101387.78;5052915;28;19912;-57
2023/12/03 06:00:19;;;;;;;;;;;;;;;-5.20;38.38;101387.06;5052841;28;19919;-55
2023/12/03 06:02:44;;;;;;;;;;;;;;;-5.23;38.88;101397.69;5052794;28;19913;-57
2023/12/03 06:05:09;;;;;;;;;;;;;;;-5.28;39.24;101398.72;5052821;28;20353;-56
2023/12/03 06:07:35;;;;;;;;;;;;;;;-5.29;38.65;101390.97;5053010;28;19920;-57
2023/12/03 06:10:00;;;;;;;;;;;;;;;-5.30;38.68;101397.97;5052870;28;20321;-54
2023/12/03 06:12:26;;;;;;;;;;;;;;;-5.35;38.35;101389.47;5052759;28;19920;-53
2023/12/03 06:14:51;;;;;;;;;;;;;;;-5.38;38.48;101394.00;5052728;28;20002;-57
2023/12/03 06:17:17;;;;;;;;;;;;;;;-5.41;38.99;101394.97;5052768;28;19920;-58
2023/12/03 06:19:44;;;;;;;;;;;;;;;-5.41;38.66;101396.75;5052785;28;19913;-55
2023/12/03 06:22:09;;;;;;;;;;;;;;;-5.42;38.66;101395.03;5034951;28;20512;-57
2023/12/03 06:24:34;;;;;;;;;;;;;;;-5.41;38.91;101396.75;5052817;28;19917;-57
2023/12/03 06:27:00;;;;;;;;;;;;;;;-5.39;38.82;101394.91;5052786;28;20297;-58
2023/12/03 06:29:25;;;;;;;;;;;;;;;-5.40;39.16;101394.06;5053018;28;19998;-55
2023/12/03 06:31:51;;;;;;;;;;;;;;;-5.40;38.98;101398.44;5052991;28;20399;-55
2023/12/03 06:34:16;;;;;;;;;;;;;;;-5.42;38.97;101408.13;5052554;28;20382;-57
2023/12/03 06:36:43;;;;;;;;;;;;;;;-5.41;38.94;101402.81;5063879;28;19913;-56
2023/12/03 06:39:11;;;;;;;;;;;;;;;-5.46;38.81;101397.81;5052878;28;19919;-56
2023/12/03 06:41:36;;;;;;;;;;;;;;;-5.45;38.91;101404.72;5052762;28;20003;-55
2023/12/03 06:44:02;;;;;;;;;;;;;;;-5.43;39.04;101401.19;5052752;28;19912;-53
2023/12/03 06:46:27;;;;;;;;;;;;;;;-5.41;38.99;101408.06;5065590;28;20315;-57
2023/12/03 06:48:52;;;;;;;;;;;;;;;-5.43;38.96;101414.28;5072470;28;19916;-57
2023/12/03 06:51:18;;;;;;;;;;;;;;;-5.42;38.79;101416.84;5066087;28;19920;-57
2023/12/03 06:53:43;;;;;;;;;;;;;;;-5.41;38.62;101415.06;5055573;28;19978;-57
2023/12/03 06:56:10;;;;;;;;;;;;;;;-5.39;38.83;101415.84;5055777;28;19928;-58
2023/12/03 06:58:35;;;;;;;;;;;;;;;-5.35;38.66;101410.44;5056164;28;19913;-56
2023/12/03 07:01:01;;;;;;;;;;;;;;;-5.38;39.18;101407.09;5056169;28;19967;-56
2023/12/03 07:03:26;;;;;;;;;;;;;;;-5.37;39.04;101408.78;5055552;28;20289;-56
2023/12/03 07:05:51;;;;;;;;;;;;;;;-5.38;39.39;101420.19;5056391;28;19935;-52
2023/12/03 07:08:18;;;;;;;;;;;;;;;-5.35;38.82;101423.50;5056224;28;19920;-53
2023/12/03 07:10:44;;;;;;;;;;;;;;;-5.33;38.96;101428.66;5055757;28;19913;-53
2023/12/03 07:13:09;;;;;;;;;;;;;;;-5.34;38.28;101427.81;5055770;28;19923;-53
2023/12/03 07:15:35;;;;;;;;;;;;;;;-5.35;39.00;101426.13;5037778;28;19917;-53
2023/12/03 07:18:00;;;;;;;;;;;;;;;-5.37;38.83;101427.94;5055790;28;20264;-53
2023/12/03 07:20:25;;;;;;;;;;;;;;;-5.33;39.15;101433.88;5055496;28;20054;-52
2023/12/03 07:22:51;;;;;;;;;;;;;;;-5.31;38.88;101429.44;5055480;28;19916;-54
2023/12/03 07:25:16;;;;;;;;;;;;;;;-5.34;38.76;101427.81;5055744;28;19962;-52
2023/12/03 07:27:45;;;;;;;;;;;;;;;-5.33;39.29;101439.13;5055729;28;20401;-53
2023/12/03 07:30:11;;;;;;;;;;;;;;;-5.33;38.89;101440.00;5055296;28;19999;-55
2023/12/03 07:32:36;;;;;;;;;;;;;;;-5.31;39.07;101429.44;5058935;28;19912;-56
2023/12/03 07:35:01;;;;;;;;;;;;;;;-5.30;38.76;101437.22;5075454;28;19924;-55
2023/12/03 07:37:27;;;;;;;;;;;;;;;-5.23;39.33;101427.34;5075374;28;20438;-55
2023/12/03 07:39:52;;;;;;;;;;;;;;;-5.17;39.18;101432.28;5075498;28;19913;-56
2023/12/03 07:42:17;;;;;;;;;;;;;;;-5.11;39.17;101424.19;5065793;28;19917;-57
2023/12/03 07:44:43;;;;;;;;;;;;;;;-5.04;38.91;101424.75;5055510;28;19920;-57
2023/12/03 07:47:08;;;;;;;;;;;;;;;-4.98;38.75;101437.56;5055417;28;19912;-57
2023/12/03 07:49:34;;;;;;;;;;;;;;;-4.93;38.58;101438.19;5055179;28;19938;-57
2023/12/03 07:51:59;;;;;;;;;;;;;;;-4.88;38.58;101432.75;5055441;28;19928;-56
2023/12/03 07:54:24;;;;;;;;;;;;;;;-4.83;39.02;101433.38;5054561;28;20392;-57
2023/12/03 07:56:50;;;;;;;;;;;;;;;-4.76;39.15;101447.91;5055516;28;20405;-55
2023/12/03 07:59:15;;;;;;;;;;;;;;;-4.68;39.07;101439.69;5054743;28;19982;-57
2023/12/03 08:01:40;;;;;;;;;;;;;;;-4.57;38.67;101439.19;5036115;28;19912;-56
2023/12/03 08:04:06;;;;;;;;;;;;;;;-4.47;39.00;101446.56;5054782;28;19959;-57
2023/12/03 08:06:32;;;;;;;;;;;;;;;-4.40;38.48;101448.88;5054648;28;19913;-57
2023/12/03 08:08:58;;;;;;;;;;;;;;;-4.34;38.83;101448.59;5054704;28;19917;-57
2023/12/03 08:11:23;;;;;;;;;;;;;;;-4.25;38.30;101449.91;5054437;28;19946;-58
2023/12/03 08:13:48;;;;;;;;;;;;;;;-4.18;38.82;101452.19;5054894;28;20051;-58
2023/12/03 08:16:14;;;;;;;;;;;;;;;-4.11;38.60;101456.19;5054293;28;19928;-55
2023/12/03 08:18:39;;;;;;;;;;;;;;;-4.04;38.43;101454.13;5054513;28;19962;-57
2023/12/03 08:21:05;;;;;;;;;;;;;;;-3.96;37.58;101446.72;5054483;28;20401;-57
2023/12/03 08:23:32;;;;;;;;;;;;;;;-3.89;38.08;101457.78;5054587;28;19912;-57
2023/12/03 08:25:57;;;;;;;;;;;;;;;-3.81;38.38;101450.34;5054614;28;19913;-57
2023/12/03 08:28:23;;;;;;;;;;;;;;;-3.73;37.52;101447.38;5054347;28;20397;-57
2023/12/03 08:30:48;;;;;;;;;;;;;;;-3.65;38.04;101452.22;5073988;28;19919;-56
2023/12/03 08:33:14;;;;;;;;;;;;;;;-3.59;38.11;101455.38;5074251;28;19928;-57
2023/12/03 08:35:40;;;;;;;;;;;;;;;-3.56;37.27;101454.38;5074227;28;19920;-58
2023/12/03 08:38:05;;;;;;;;;;;;;;;-3.50;38.10;101454.06;5068418;28;20297;-58
2023/12/03 08:40:32;;;;;;;;;;;;;;;-3.48;37.10;101457.47;5036195;28;20273;-57
2023/12/03 08:42:57;;;;;;;;;;;;;;;-3.44;37.72;101451.13;5054099;28;20360;-57
2023/12/03 08:45:23;;;;;;;;;;;;;;;-3.39;38.08;101456.16;5054302;28;19948;-58
2023/12/03 08:47:48;;;;;;;;;;;;;;;-3.33;37.26;101461.06;5054123;28;20277;-55
2023/12/03 08:50:13;;;;;;;;;;;;;;;-3.27;36.84;101459.91;5054064;28;19917;-57
2023/12/03 08:52:39;;;;;;;;;;;;;;;-3.23;37.80;101459.69;5054163;28;20392;-57
2023/12/03 08:55:04;;;;;;;;;;;;;;;-3.19;37.31;101460.38;5053356;28;20335;-53
2023/12/03 08:57:30;;;;;;;;;;;;;;;-3.15;36.68;101456.66;5054042;28;19916;-58
2023/12/03 08:59:56;;;;;;;;;;;;;;;-3.07;37.12;101462.34;5053826;28;19997;-57
2023/12/03 09:02:21;;;;;;;;;;;;;;;-3.03;36.89;101463.03;5053773;28;19917;-57
2023/12/03 09:04:47;;;;;;;;;;;;;;;-2.97;37.35;101465.31;5053647;28;19913;-58
2023/12/03 09:07:12;;;;;;;;;;;;;;;-2.92;36.82;101463.31;5035643;28;19913;-58
2023/12/03 09:09:37;;;;;;;;;;;;;;;-2.88;37.09;101470.09;5053658;28;19913;-57
2023/12/03 09:12:03;;;;;;;;;;;;;;;-2.84;37.67;101462.88;5053418;28;19920;-59
2023/12/03 09:14:28;;;;;;;;;;;;;;;-2.81;37.80;101471.47;5053739;28;19920;-56
2023/12/03 09:16:54;;;;;;;;;;;;;;;-2.80;36.83;101461.81;5053646;28;20465;-56
2023/12/03 09:19:19;;;;;;;;;;;;;;;-2.77;37.01;101469.50;5053528;28;19940;-56
2023/12/03 09:21:45;;;;;;;;;;;;;;;-2.78;36.98;101466.03;5053656;28;19917;-57
2023/12/03 09:24:10;;;;;;;;;;;;;;;-2.80;37.31;101464.44;5053300;28;20022;-57
2023/12/03 09:26:35;;;;;;;;;;;;;;;-2.79;36.66;101471.38;5069081;28;19912;-55
2023/12/03 09:29:01;;;;;;;;;;;;;;;-2.78;37.51;101467.84;5073521;28;19919;-57
2023/12/03 09:31:26;;;;;;;;;;;;;;;-2.79;36.67;101469.59;5073381;28;19913;-57
2023/12/03 09:33:52;;;;;;;;;;;;;;;-2.80;37.26;101469.69;5073318;28;19993;-57
2023/12/03 09:36:17;;;;;;;;;;;;;;;-2.82;37.56;101475.03;5059118;28;20293;-57
2023/12/03 09:38:42;;;;;;;;;;;;;;;-2.80;36.99;101473.16;5053350;28;20007;-56
2023/12/03 09:41:10;;;;;;;;;;;;;;;-2.77;37.01;101486.16;5053166;28;20281;-56
2023/12/03 09:43:36;;;;;;;;;;;;;;;-2.79;37.38;101488.00;5035318;28;20016;-57
2023/12/03 09:46:05;;;;;;;;;;;;;;;-2.77;37.82;101488.78;5052589;28;19913;-56
2023/12/03 09:48:31;;;;;;;;;;;;;;;-2.76;37.88;101485.22;5053267;28;20005;-58
2023/12/03 09:50:59;;;;;;;;;;;;;;;-2.74;37.30;101485.13;5052982;28;19912;-53
2023/12/03 09:53:26;;;;;;;;;;;;;;;-2.74;37.97;101490.38;5053146;28;19913;-57
2023/12/03 09:55:53;;;;;;;;;;;;;;;-2.79;37.46;101484.53;5052701;28;19923;-55
2023/12/03 09:58:19;;;;;;;;;;;;;;;-2.86;37.34;101484.03;5053601;28;19990;-57
2023/12/03 10:00:44;;;;;;;;;;;;;;;-2.88;37.44;101480.59;5053121;28;19913;-57
2023/12/03 10:03:10;;;;;;;;;;;;;;;-2.89;38.30;101485.97;5052758;28;19967;-57
2023/12/03 10:05:35;;;;;;;;;;;;;;;-2.93;37.49;101485.28;5053114;28;20262;-57
2023/12/03 10:08:02;;;;;;;;;;;;;;;-2.95;38.09;101485.34;5053043;28;19999;-58
2023/12/03 10:10:31;;;;;;;;;;;;;;;-2.98;38.12;101484.66;5053016;28;20281;-57
2023/12/03 10:12:57;;;;;;;;;;;;;;;-2.98;38.12;101480.25;5052871;28;19921;-57
2023/12/03 10:15:22;;;;;;;;;;;;;;;-2.99;37.31;101480.31;5052823;28;19917;-53
2023/12/03 10:17:49;;;;;;;;;;;;;;;-2.94;38.02;101471.25;5035369;28;19913;-56
2023/12/03 10:20:27;;;;;;;;;;;;;;;-2.81;37.76;101473.25;5052543;28;20276;-56
2023/12/03 10:22:54;;;;;;;;;;;;;;;-3.12;37.97;101412.69;5068717;28;19924;-58
2023/12/03 10:25:32;;;;;;;;;;;;;;;-2.60;38.04;101469.47;5074455;28;19916;-57
2023/12/03 10:28:08;;;;;;;;;;;;;;;-2.46;37.55;101467.84;5076665;28;19999;-57
2023/12/03 10:30:34;;;;;;;;;;;;;;;-2.36;36.79;101469.91;5076796;28;19924;-57
2023/12/03 10:32:59;;;;;;;;;;;;;;;-2.27;37.35;101468.50;5076734;28;19917;-58
2023/12/03 10:35:25;;;;;;;;;;;;;;;-2.18;36.89;101467.16;5069623;28;20285;-57
2023/12/03 10:37:51;;;;;;;;;;;;;;;-2.09;37.45;101473.69;5056666;28;20261;-55
2023/12/03 10:40:18;;;;;;;;;;;;;;;-2.02;37.01;101469.78;5056874;28;19912;-54
2023/12/03 10:42:46;;;;;;;;;;;;;;;-1.94;36.95;101467.56;5056330;28;19913;-57
2023/12/03 10:45:13;;;;;;;;;;;;;;;-1.88;36.74;101461.91;5056603;28;19913;-58
2023/12/03 10:47:38;;;;;;;;;;;;;;;-1.78;36.48;101465.72;5038424;28;20014;-58
2023/12/03 10:50:05;;;;;;;;;;;;;;;-1.66;36.32;101464.16;5056273;28;19944;-58
2023/12/03 10:52:37;;;;;;;;;;;;;;;-1.59;36.95;101469.94;5056318;28;19913;-58
2023/12/03 10:55:08;;;;;;;;;;;;;;;-1.46;36.70;101475.31;5055815;28;20316;-58
2023/12/03 10:57:48;;;;;;;;;;;;;;;-1.37;35.79;101467.72;5056328;28;19958;-57
2023/12/03 11:00:17;;;;;;;;;;;;;;;-1.28;36.54;101468.97;5056148;28;19913;-57
2023/12/03 11:02:47;;;;;;;;;;;;;;;-1.25;36.57;101465.28;5038432;28;19917;-58
2023/12/03 11:05:24;;;;;;;;;;;;;;;-1.16;35.94;101470.00;5056185;28;19980;-58
2023/12/03 11:07:49;;;;;;;;;;;;;;;-1.01;36.74;101469.06;5056177;28;19975;-56
2023/12/03 11:10:15;;;;;;;;;;;;;;;-0.89;36.35;101459.56;5055597;28;19913;-56
2023/12/03 11:12:40;;;;;;;;;;;;;;;-0.80;36.43;101466.91;5055685;28;19956;-58
2023/12/03 11:15:08;;;;;;;;;;;;;;;-0.70;35.96;101463.69;5055971;28;19948;-57
2023/12/03 11:17:44;;;;;;;;;;;;;;;-0.60;35.42;101460.34;5058694;28;19919;-56
2023/12/03 11:20:13;;;;;;;;;;;;;;;-0.51;35.43;101458.09;5075930;28;19919;-56
2023/12/03 11:22:57;;;;;;;;;;;;;;;-0.42;35.13;101460.16;5075763;28;20203;-58
2023/12/03 11:25:32;;;;;;;;;;;;;;;-0.32;35.86;101465.69;5075880;28;19920;-58
2023/12/03 11:27:57;;;;;;;;;;;;;;;-0.22;36.02;101465.00;5075502;28;20007;-58
2023/12/03 11:30:36;;;;;;;;;;;;;;;-0.14;35.29;101455.75;5075617;28;19948;-58
2023/12/03 11:33:05;;;;;;;;;;;;;;;-0.03;35.27;101459.34;5075687;28;19956;-58
2023/12/03 11:35:30;;;;;;;;;;;;;;;0.09;35.22;101451.56;5067632;28;19925;-58
2023/12/03 11:37:56;;;;;;;;;;;;;;;0.12;34.97;101460.16;5037079;28;19919;-58
2023/12/03 11:40:32;;;;;;;;;;;;;;;0.23;35.18;101463.88;5055758;28;20389;-58
2023/12/03 11:42:58;;;;;;;;;;;;;;;0.32;34.88;101455.34;5055382;28;19995;-58
2023/12/03 11:45:27;;;;;;;;;;;;;;;0.35;34.52;101450.72;5055136;28;20007;-57
2023/12/03 11:48:05;;;;;;;;;;;;;;;0.44;34.96;101458.94;5054960;28;20424;-57
2023/12/03 11:50:31;;;;;;;;;;;;;;;0.48;34.58;101455.16;5054959;28;20389;-57
2023/12/03 11:52:56;;;;;;;;;;;;;;;0.56;34.75;101451.03;5054836;28;19913;-58
2023/12/03 11:55:22;;;;;;;;;;;;;;;0.64;34.42;101452.31;5054491;28;19967;-58
2023/12/03 11:57:47;;;;;;;;;;;;;;;0.68;34.38;101456.44;5037191;28;19913;-58
2023/12/03 12:00:13;;;;;;;;;;;;;;;0.77;34.41;101453.16;5055046;28;19919;-57
2023/12/03 12:02:38;;;;;;;;;;;;;;;0.78;33.92;101454.88;5054726;28;19913;-56
2023/12/03 12:05:04;;;;;;;;;;;;;;;0.84;33.62;101453.59;5036939;28;19919;-56
2023/12/03 12:07:29;;;;;;;;;;;;;;;0.85;34.38;101458.75;5055047;28;19917;-55
2023/12/03 12:09:54;;;;;;;;;;;;;;;0.87;34.22;101456.84;5054859;28;19944;-59
2023/12/03 12:12:20;;;;;;;;;;;;;;;0.90;34.71;101448.72;5054447;28;19921;-57
2023/12/03 12:14:45;;;;;;;;;;;;;;;0.93;34.34;101456.44;5047758;28;20284;-59
2023/12/03 12:17:11;;;;;;;;;;;;;;;1.01;34.25;101455.06;5059459;28;19920;-58
2023/12/03 12:19:43;;;;;;;;;;;;;;;1.12;34.25;101440.13;5054520;28;20360;-57
2023/12/03 12:22:09;;;;;;;;;;;;;;;1.19;34.66;101452.91;5054493;28;19916;-58
2023/12/03 12:24:34;;;;;;;;;;;;;;;1.24;33.30;101450.81;5054208;28;19928;-59
2023/12/03 12:26:59;;;;;;;;;;;;;;;1.31;33.25;101452.06;5054670;28;19916;-56
2023/12/03 12:29:25;;;;;;;;;;;;;;;1.35;34.55;101449.06;5054154;28;19913;-57
2023/12/03 12:31:50;;;;;;;;;;;;;;;1.50;33.70;101439.19;5054556;28;19967;-57